createdAt,value
2023-02-27T00:00:41.209Z,-3
2023-02-27T00:15:41.801Z,-3.1
2023-02-27T00:30:47.563Z,-3.1
2023-02-27T00:45:43.199Z,-2.9
2023-02-27T01:00:44.355Z,-3
2023-02-27T01:15:44.288Z,-3
2023-02-27T01:30:45.127Z,-3
2023-02-27T01:45:44.764Z,-3
2023-02-27T02:00:46.197Z,-3
2023-02-27T02:01:29.179Z,-3
2023-02-27T02:15:45.635Z,-3
2023-02-27T02:30:48.516Z,-3
2023-02-27T02:45:47.911Z,-3.2
2023-02-27T03:00:47.507Z,-3.2
2023-02-27T03:15:48.831Z,-3.2
2023-02-27T03:30:50.399Z,-3.2
2023-02-27T03:45:50.127Z,-3.1
2023-02-27T04:00:50.531Z,-3.1
2023-02-27T04:15:51.149Z,-3.1
2023-02-27T04:30:51.436Z,-3.1
2023-02-27T04:45:53.466Z,-3.2
2023-02-27T05:00:56.166Z,-3.2
2023-02-27T05:15:54.689Z,-3.2
2023-02-27T05:30:56.742Z,-3.2
2023-02-27T05:45:56.768Z,-3.1
2023-02-27T05:55:50.556Z,-3.1
2023-02-27T06:10:51.949Z,-3.1
2023-02-27T06:25:51.869Z,-3
2023-02-27T06:40:52.056Z,-2.9
2023-02-27T06:55:56.397Z,-2.9
2023-02-27T07:10:54.408Z,-2.8
2023-02-27T07:25:54.034Z,-2.7
2023-02-27T07:40:55.510Z,-2.5
2023-02-27T07:55:56.086Z,-2.3
2023-02-27T08:10:56.265Z,-2.3
2023-02-27T08:25:57.560Z,-2.2
2023-02-27T08:40:57.897Z,-2
2023-02-27T08:55:58.528Z,-1.8
2023-02-27T09:10:58.853Z,-1.7
2023-02-27T09:26:01.126Z,-2
2023-02-27T09:41:00.861Z,-2
2023-02-27T09:56:01.948Z,-1.9
2023-02-27T10:11:02.451Z,-1.7
2023-02-27T10:26:07.457Z,-1.7
2023-02-27T10:41:03.451Z,-1.7
2023-02-27T10:56:04.616Z,-1.7
2023-02-27T11:11:08.026Z,-1.5
2023-02-27T11:26:06.792Z,-1.1
2023-02-27T11:41:06.851Z,-1.1
2023-02-27T11:56:06.813Z,-1
2023-02-27T12:11:15.117Z,-1
2023-02-27T12:26:07.997Z,-0.9
2023-02-27T12:41:09.694Z,-0.9
2023-02-27T12:56:10.265Z,-1
2023-02-27T13:11:10.503Z,-1.1
2023-02-27T13:26:11.748Z,-1
2023-02-27T13:41:11.571Z,-0.8
2023-02-27T13:56:13.731Z,-0.8
2023-02-27T14:11:12.981Z,-1.3
2023-02-27T14:26:14.081Z,-1.2
2023-02-27T14:41:15.350Z,-1.4
2023-02-27T14:56:15.687Z,-1
2023-02-27T15:11:21.699Z,-1
2023-02-27T15:26:20.417Z,-1.3
2023-02-27T15:41:16.753Z,-1.8
2023-02-27T15:56:18.501Z,-1.5
2023-02-27T16:11:18.346Z,-1.8
2023-02-27T16:26:19.046Z,-1.9
2023-02-27T16:41:20.638Z,-2
2023-02-27T16:56:39.294Z,-2
2023-02-27T17:11:20.731Z,-2.3
2023-02-27T17:26:21.716Z,-2.3
2023-02-27T17:41:22.207Z,-2.4
2023-02-27T17:56:23.248Z,-2.4
2023-02-27T18:11:24.313Z,-2.5
2023-02-27T18:26:31.546Z,-2.4
2023-02-27T18:41:26.841Z,-2.4
2023-02-27T18:56:25.551Z,-2.6
2023-02-27T19:11:44.471Z,-2.6
2023-02-27T19:26:28.453Z,-2.6
2023-02-27T19:41:27.914Z,-2.7
2023-02-27T19:56:30.518Z,-2.7
2023-02-27T20:11:28.733Z,-2.7
2023-02-27T20:26:30.785Z,-2.6
2023-02-27T20:41:32.035Z,-2.7
2023-02-27T20:56:30.431Z,-3
2023-02-27T21:11:32.307Z,-3
2023-02-27T21:26:35.692Z,-3.1
2023-02-27T21:41:33.287Z,-3.2
2023-02-27T21:56:32.904Z,-3.1
2023-02-27T22:11:38.472Z,-3.3
2023-02-27T22:26:34.708Z,-3.3
2023-02-27T22:41:37.828Z,-3.3
2023-02-27T22:56:35.621Z,-3.4
2023-02-27T23:00:41.958Z,-3.3
2023-02-27T23:15:37.551Z,-3.4
2023-02-27T23:30:37.821Z,-3.5
2023-02-27T23:45:38.778Z,-3.5
